Time;durP1;ratioP1;P1;durP2;ratioP2;P2;SDS_P1;SDS_P2;PMS_P1;PMS_P2;Temp;Humidity;BMP_temperature;BMP_pressure;BME280_temperature;BME280_humidity;BME280_pressure;Samples;Min_cycle;Max_cycle;Signal;HPM_P1;HPM_P2
2020/12/01 00:00:08;;;;;;;5.00;3.72;;;9.40;79.60;;;;;;5113548;28;20062;-43
2020/12/01 00:02:34;;;;;;;4.20;3.35;;;9.40;79.60;;;;;;5132366;28;20501;-44
2020/12/01 00:05:00;;;;;;;4.30;3.33;;;9.40;79.60;;;;;;5132148;28;20035;-44
2020/12/01 00:07:26;;;;;;;5.03;3.55;;;9.40;79.60;;;;;;5132163;28;20190;-45
2020/12/01 00:09:51;;;;;;;5.60;3.72;;;9.50;79.70;;;;;;5132310;28;20097;-43
2020/12/01 00:12:37;;;;;;;5.03;3.70;;;9.40;80.00;;;;;;5143668;27;20055;-45
2020/12/01 00:15:03;;;;;;;4.78;3.42;;;9.40;79.60;;;;;;5132056;28;20181;-44
2020/12/01 00:17:29;;;;;;;5.00;3.28;;;9.40;79.60;;;;;;5131879;28;20175;-45
2020/12/01 00:20:17;;;;;;;5.20;3.17;;;9.40;79.60;;;;;;5116798;28;20372;-46
2020/12/01 00:22:42;;;;;;;5.22;3.60;;;9.40;79.60;;;;;;5131842;28;20057;-45
2020/12/01 00:25:09;;;;;;;4.70;2.80;;;9.50;79.60;;;;;;5113990;28;20402;-47
2020/12/01 00:27:35;;;;;;;4.18;3.05;;;9.40;79.60;;;;;;5131434;27;20142;-46
2020/12/01 00:30:24;;;;;;;5.60;3.60;;;9.50;79.60;;;;;;5120075;27;20062;-45
2020/12/01 00:33:11;;;;;;;4.72;3.53;;;9.40;79.50;;;;;;5120586;27;20046;-42
2020/12/01 00:35:37;;;;;;;4.00;2.67;;;9.40;79.50;;;;;;5135987;27;20043;-45
2020/12/01 00:38:03;;;;;;;5.03;3.40;;;9.50;79.60;;;;;;5135347;27;20490;-45
2020/12/01 00:40:29;;;;;;;4.22;3.05;;;9.50;79.60;;;;;;5150547;27;20047;-45
2020/12/01 00:42:55;;;;;;;3.35;2.70;;;9.50;79.60;;;;;;5134986;27;20084;-47
2020/12/01 00:45:42;;;;;;;3.97;3.30;;;9.50;79.60;;;;;;5119810;27;20040;-44
2020/12/01 00:48:07;;;;;;;4.28;3.10;;;9.50;79.60;;;;;;5135384;27;20054;-45
2020/12/01 00:50:53;;;;;;;6.22;3.20;;;9.40;79.50;;;;;;5111248;27;20179;-48
2020/12/01 00:53:19;;;;;;;3.15;2.78;;;9.50;79.50;;;;;;5135286;27;20467;-49
2020/12/01 00:56:04;;;;;;;4.22;3.08;;;9.50;79.50;;;;;;5147176;27;20049;-50
2020/12/01 00:58:51;;;;;;;3.45;2.83;;;9.50;79.50;;;;;;5147174;27;20422;-47
2020/12/01 01:01:36;;;;;;;4.97;2.97;;;9.50;79.50;;;;;;5147147;27;20047;-49
2020/12/01 01:04:22;;;;;;;4.50;3.40;;;9.50;79.50;;;;;;5147220;27;20540;-46
2020/12/01 01:06:49;;;;;;;4.38;3.03;;;9.50;79.50;;;;;;5135323;27;20122;-47
2020/12/01 01:09:16;;;;;;;3.80;2.92;;;9.50;79.50;;;;;;5135114;27;20040;-47
2020/12/01 01:11:42;;;;;;;4.40;2.97;;;9.50;79.50;;;;;;5135282;27;20407;-49
2020/12/01 01:14:27;;;;;;;4.82;3.00;;;9.50;79.40;;;;;;5119889;27;20046;-47
2020/12/01 01:17:13;;;;;;;3.05;2.65;;;9.50;79.50;;;;;;5119217;27;20043;-48
2020/12/01 01:19:59;;;;;;;3.80;3.13;;;9.50;79.50;;;;;;5119730;27;20071;-44
2020/12/01 01:22:24;;;;;;;4.15;2.95;;;9.50;79.40;;;;;;5134699;27;20447;-48
2020/12/01 01:24:50;;;;;;;3.42;2.53;;;9.50;79.50;;;;;;5134904;27;20518;-48
2020/12/01 01:27:16;;;;;;;3.88;2.90;;;9.50;79.40;;;;;;5135060;27;20106;-45
2020/12/01 01:29:41;;;;;;;3.95;2.85;;;9.50;79.40;;;;;;5135425;27;20039;-45
2020/12/01 01:32:07;;;;;;;2.95;2.40;;;9.50;79.40;;;;;;5133877;27;20047;-46
2020/12/01 01:34:33;;;;;;;3.85;2.95;;;9.50;79.40;;;;;;5135315;27;20072;-47
2020/12/01 01:36:58;;;;;;;4.07;2.63;;;9.50;79.40;;;;;;5134803;27;20047;-47
2020/12/01 01:39:24;;;;;;;3.75;2.85;;;9.50;79.40;;;;;;5134138;27;20055;-45
2020/12/01 01:41:50;;;;;;;3.38;2.55;;;9.50;79.40;;;;;;5134678;27;20525;-47
2020/12/01 01:44:37;;;;;;;2.83;2.47;;;9.50;79.40;;;;;;5118376;27;20054;-45
2020/12/01 01:47:05;;;;;;;3.30;2.20;;;9.50;79.40;;;;;;5133918;27;20509;-46
2020/12/01 01:50:00;;;;;;;3.20;2.35;;;9.50;80.00;;;;;;5118926;27;20146;-44
2020/12/01 01:52:35;;;;;;;3.88;2.45;;;9.50;79.40;;;;;;5134309;27;20412;-47
2020/12/01 01:55:07;;;;;;;3.50;2.50;;;9.50;79.40;;;;;;5134146;27;20057;-48
2020/12/01 01:57:34;;;;;;;3.35;2.47;;;9.50;79.30;;;;;;5134708;27;20297;-45
2020/12/01 02:00:51;;;;;;;2.63;2.17;;;9.50;79.30;;;;;;5119342;27;20043;-47
2020/12/01 02:03:58;;;;;;;4.60;3.28;;;9.50;79.40;;;;;;5118735;27;20043;-46
2020/12/01 02:06:39;;;;;;;3.55;2.63;;;9.50;79.30;;;;;;5133908;27;20051;-45
2020/12/01 02:09:09;;;;;;;3.53;2.20;;;9.50;79.30;;;;;;5134061;27;20128;-47
2020/12/01 02:11:37;;;;;;;3.20;2.30;;;9.50;79.30;;;;;;5132678;27;20192;-44
2020/12/01 02:14:29;;;;;;;3.63;2.50;;;9.50;79.30;;;;;;5118251;27;20043;-44
2020/12/01 02:17:29;;;;;;;4.75;2.28;;;9.50;79.30;;;;;;5145737;27;20053;-44
2020/12/01 02:20:18;;;;;;;3.80;2.92;;;9.50;79.30;;;;;;5117909;27;20076;-45
2020/12/01 02:22:47;;;;;;;4.05;2.50;;;9.50;79.30;;;;;;5133229;27;20605;-44
2020/12/01 02:25:15;;;;;;;3.28;2.50;;;9.50;79.30;;;;;;5133828;27;20042;-45
2020/12/01 02:27:41;;;;;;;4.85;2.70;;;9.50;79.30;;;;;;5133641;27;20047;-46
2020/12/01 02:30:11;;;;;;;4.25;2.10;;;9.50;79.30;;;;;;5134025;27;20435;-46
2020/12/01 02:32:37;;;;;;;4.05;2.22;;;9.50;79.30;;;;;;5132800;27;20057;-43
2020/12/01 02:35:23;;;;;;;4.13;1.92;;;9.50;79.30;;;;;;5118310;27;20126;-43
2020/12/01 02:37:49;;;;;;;3.55;2.40;;;9.50;79.30;;;;;;5133509;27;20130;-45
2020/12/01 02:40:17;;;;;;;2.80;2.40;;;9.50;79.30;;;;;;5133743;27;20039;-44
2020/12/01 02:43:09;;;;;;;4.10;2.58;;;9.50;79.30;;;;;;5143991;27;20054;-44
2020/12/01 02:45:35;;;;;;;2.67;1.90;;;9.50;79.30;;;;;;5133401;27;20078;-45
2020/12/01 02:48:00;;;;;;;2.50;2.05;;;9.60;79.30;;;;;;5133832;27;20074;-44
2020/12/01 02:50:26;;;;;;;2.80;2.50;;;9.50;79.30;;;;;;5133237;27;20043;-44
2020/12/01 02:52:52;;;;;;;4.38;2.50;;;9.50;79.30;;;;;;5131892;27;20055;-44
2020/12/01 02:55:17;;;;;;;3.70;1.90;;;9.50;79.20;;;;;;5133424;27;20043;-45
2020/12/01 02:57:43;;;;;;;2.83;2.10;;;9.50;79.30;;;;;;5132932;27;20404;-45
2020/12/01 03:00:09;;;;;;;3.00;2.05;;;9.50;79.20;;;;;;5133175;27;20055;-43
2020/12/01 03:02:54;;;;;;;2.85;2.05;;;9.60;79.30;;;;;;5108576;27;20047;-42
2020/12/01 03:05:20;;;;;;;3.75;2.20;;;9.50;79.20;;;;;;5132901;27;20441;-44
2020/12/01 03:07:45;;;;;;;4.63;2.53;;;9.60;79.30;;;;;;5132384;27;20046;-45
2020/12/01 03:10:12;;;;;;;3.22;2.00;;;9.60;79.30;;;;;;5132987;27;20043;-45
2020/12/01 03:12:37;;;;;;;3.13;2.22;;;9.50;79.20;;;;;;5132756;27;20482;-46
2020/12/01 03:15:09;;;;;;;4.22;2.00;;;9.60;79.30;;;;;;5133284;27;20130;-46
2020/12/01 03:17:35;;;;;;;3.15;2.20;;;9.50;79.20;;;;;;5132885;27;20486;-45
2020/12/01 03:20:21;;;;;;;3.05;1.67;;;9.60;79.30;;;;;;5144391;27;20552;-45
2020/12/01 03:22:46;;;;;;;2.83;2.28;;;9.60;79.30;;;;;;5132356;27;20160;-45
2020/12/01 03:25:12;;;;;;;3.15;1.90;;;9.60;79.30;;;;;;5132464;28;20043;-43
2020/12/01 03:27:38;;;;;;;4.13;2.35;;;9.50;79.30;;;;;;5145595;27;20035;-48
2020/12/01 03:30:06;;;;;;;2.20;1.92;;;9.60;79.40;;;;;;5132993;28;20051;-45
2020/12/01 03:32:32;;;;;;;3.40;2.00;;;9.60;79.30;;;;;;5132342;28;20251;-45
2020/12/01 03:34:58;;;;;;;3.70;1.90;;;9.60;79.30;;;;;;5132575;28;20544;-44
2020/12/01 03:37:24;;;;;;;2.35;1.73;;;9.60;79.40;;;;;;5133021;28;20063;-44
2020/12/01 03:40:09;;;;;;;3.70;2.25;;;9.60;79.30;;;;;;5143703;27;20039;-45
2020/12/01 03:42:35;;;;;;;3.45;2.40;;;9.60;79.40;;;;;;5132264;28;20039;-45
2020/12/01 03:45:02;;;;;;;4.13;2.10;;;9.60;79.30;;;;;;5132955;28;20073;-46
2020/12/01 03:47:47;;;;;;;2.67;1.90;;;9.60;79.30;;;;;;5117249;28;20047;-45
2020/12/01 03:50:13;;;;;;;2.47;1.60;;;9.60;79.40;;;;;;5132296;28;20112;-45
2020/12/01 03:52:39;;;;;;;2.78;2.00;;;9.60;79.40;;;;;;5132405;28;20444;-45
2020/12/01 03:55:05;;;;;;;2.50;1.77;;;9.60;79.30;;;;;;5131098;28;20051;-46
2020/12/01 03:57:40;;;;;;;2.65;1.80;;;9.60;79.40;;;;;;5132046;28;20035;-46
2020/12/01 04:00:11;;;;;;;2.95;1.52;;;9.60;79.40;;;;;;5132432;28;20061;-45
2020/12/01 04:02:37;;;;;;;4.25;1.98;;;9.60;79.40;;;;;;5132355;27;20047;-49
2020/12/01 04:05:04;;;;;;;2.05;1.80;;;9.60;79.30;;;;;;5136030;27;20047;-48
2020/12/01 04:07:30;;;;;;;3.55;1.90;;;9.60;79.40;;;;;;5136609;27;20043;-47
2020/12/01 04:10:17;;;;;;;3.38;2.03;;;9.60;79.40;;;;;;5121420;27;20043;-48
2020/12/01 04:13:03;;;;;;;1.90;1.50;;;9.60;79.40;;;;;;5120659;27;20039;-47
2020/12/01 04:15:29;;;;;;;2.85;1.92;;;9.60;79.40;;;;;;5135508;27;20430;-45
2020/12/01 04:17:55;;;;;;;2.63;1.85;;;9.60;79.40;;;;;;5136595;27;20039;-44
2020/12/01 04:20:21;;;;;;;1.55;1.40;;;9.60;79.40;;;;;;5135952;27;20046;-46
2020/12/01 04:22:47;;;;;;;2.83;1.55;;;9.60;79.40;;;;;;5135855;27;20055;-45
2020/12/01 04:25:15;;;;;;;2.60;1.67;;;9.60;79.30;;;;;;5136295;27;20043;-48
2020/12/01 04:27:41;;;;;;;2.47;2.00;;;9.60;79.40;;;;;;5135444;27;20051;-48
2020/12/01 04:30:26;;;;;;;2.05;1.65;;;9.60;79.40;;;;;;5106286;27;20635;-46
2020/12/01 04:32:53;;;;;;;5.07;2.08;;;9.60;79.40;;;;;;5136063;27;20126;-49
2020/12/01 04:35:39;;;;;;;2.90;1.95;;;9.60;79.40;;;;;;5120842;27;20448;-47
2020/12/01 04:38:06;;;;;;;2.90;1.60;;;9.60;79.40;;;;;;5135910;27;20047;-48
2020/12/01 04:40:53;;;;;;;3.15;1.63;;;9.60;79.40;;;;;;5120939;27;20134;-47
2020/12/01 04:43:41;;;;;;;2.20;1.33;;;9.60;79.40;;;;;;5135301;27;20486;-46
2020/12/01 04:46:15;;;;;;;2.28;1.98;;;9.60;79.40;;;;;;5134730;27;20043;-44
2020/12/01 04:49:00;;;;;;;2.55;1.75;;;9.60;79.40;;;;;;5132682;27;20667;-49
2020/12/01 04:51:37;;;;;;;5.43;1.70;;;9.60;79.40;;;;;;5135469;27;20096;-47
2020/12/01 04:54:29;;;;;;;2.92;1.40;;;9.60;79.40;;;;;;5147218;27;20051;-49
2020/12/01 04:57:26;;;;;;;1.85;1.30;;;9.60;79.40;;;;;;5135565;27;20074;-46
2020/12/01 05:00:07;;;;;;;2.03;1.60;;;9.60;79.40;;;;;;5125311;27;20127;-46
2020/12/01 05:02:52;;;;;;;3.28;1.50;;;9.60;79.40;;;;;;5135558;27;20057;-44
2020/12/01 05:06:18;;;;;;;2.70;1.65;;;9.60;79.40;;;;;;5135105;27;20050;-45
2020/12/01 05:09:11;;;;;;;2.05;1.35;;;9.60;79.40;;;;;;5111985;27;20047;-45
2020/12/01 05:11:59;;;;;;;3.05;1.67;;;9.60;79.50;;;;;;5111012;27;20059;-48
2020/12/01 05:14:45;;;;;;;2.15;1.55;;;9.60;79.40;;;;;;5134322;27;20237;-47
2020/12/01 05:18:00;;;;;;;2.33;1.85;;;9.60;79.40;;;;;;5119448;27;20047;-47
2020/12/01 05:21:01;;;;;;;4.18;2.00;;;9.60;79.40;;;;;;5119624;27;20051;-45
2020/12/01 05:23:47;;;;;;;2.10;1.35;;;9.60;79.40;;;;;;5134399;27;20051;-47
2020/12/01 05:26:16;;;;;;;1.85;1.48;;;9.60;79.40;;;;;;5134646;27;20039;-46
2020/12/01 05:29:02;;;;;;;2.00;1.50;;;9.60;79.40;;;;;;5119329;27;20065;-43
2020/12/01 05:31:40;;;;;;;1.48;1.33;;;9.60;79.40;;;;;;5134316;27;20483;-46
2020/12/01 05:34:15;;;;;;;1.98;1.45;;;9.60;79.40;;;;;;5134817;27;20118;-45
2020/12/01 05:36:41;;;;;;;1.85;1.50;;;9.60;79.40;;;;;;5134624;27;20035;-46
2020/12/01 05:39:32;;;;;;;4.20;2.95;;;9.60;79.40;;;;;;5118974;27;20101;-45
2020/12/01 05:42:05;;;;;;;2.35;1.20;;;9.60;79.40;;;;;;5134707;27;20122;-46
2020/12/01 05:44:33;;;;;;;1.85;1.27;;;9.60;79.40;;;;;;5134561;27;20050;-45
2020/12/01 05:47:02;;;;;;;1.48;1.05;;;9.60;79.40;;;;;;5134211;27;20044;-45
2020/12/01 05:49:52;;;;;;;1.58;1.48;;;9.60;79.50;;;;;;5118889;27;20051;-47
2020/12/01 05:52:28;;;;;;;1.67;1.23;;;9.60;79.50;;;;;;5123984;27;20146;-45
2020/12/01 05:55:19;;;;;;;1.38;1.27;;;9.60;79.50;;;;;;5133995;27;20039;-45
2020/12/01 05:58:05;;;;;;;1.60;1.40;;;9.60;79.40;;;;;;5134314;27;20050;-45
2020/12/01 06:00:42;;;;;;;1.80;1.17;;;9.60;79.50;;;;;;5133800;27;20055;-45
2020/12/01 06:03:16;;;;;;;2.25;1.30;;;9.70;79.50;;;;;;5133676;27;20054;-44
2020/12/01 06:05:45;;;;;;;1.50;1.13;;;9.60;79.50;;;;;;5122625;27;20049;-45
2020/12/01 06:08:59;;;;;;;2.53;1.35;;;9.60;79.40;;;;;;5104248;27;20418;-45
2020/12/01 06:11:52;;;;;;;1.88;1.10;;;9.60;79.40;;;;;;5118971;27;20138;-44
2020/12/01 06:14:31;;;;;;;2.08;1.50;;;9.60;79.50;;;;;;5133747;27;20046;-45
2020/12/01 06:17:53;;;;;;;2.28;1.40;;;9.60;79.50;;;;;;5118168;27;20076;-45
2020/12/01 06:20:50;;;;;;;1.95;1.15;;;9.60;79.40;;;;;;5061395;28;20063;-49
2020/12/01 06:24:08;;;;;;;1.10;1.00;;;9.60;79.40;;;;;;5036317;28;20135;-45
2020/12/01 06:27:18;;;;;;;1.23;1.02;;;9.60;79.40;;;;;;5036144;28;20048;-46
2020/12/01 06:30:21;;;;;;;1.63;1.27;;;9.60;79.50;;;;;;5050454;28;20497;-45
2020/12/01 06:33:17;;;;;;;2.35;1.20;;;9.60;80.00;;;;;;5050528;28;20184;-45
2020/12/01 06:36:27;;;;;;;1.67;1.33;;;9.60;79.60;;;;;;5038769;28;20064;-47
2020/12/01 06:38:53;;;;;;;1.35;1.25;;;9.60;79.70;;;;;;5040950;28;20100;-45
2020/12/01 06:41:44;;;;;;;2.70;1.27;;;9.60;79.60;;;;;;5035686;28;20144;-45
2020/12/01 06:44:29;;;;;;;2.58;1.30;;;9.60;79.70;;;;;;5036593;28;20460;-46
2020/12/01 06:46:57;;;;;;;0.90;0.80;;;9.60;79.70;;;;;;5049914;28;20060;-50
2020/12/01 06:49:27;;;;;;;2.42;1.27;;;9.60;79.70;;;;;;5050145;28;20120;-49
2020/12/01 06:52:14;;;;;;;3.58;1.83;;;9.60;79.80;;;;;;5035208;28;20068;-50
2020/12/01 06:54:51;;;;;;;2.55;1.10;;;9.70;79.90;;;;;;5049806;28;20123;-48
2020/12/01 06:57:37;;;;;;;1.25;1.10;;;9.60;79.90;;;;;;5114036;27;20487;-46
2020/12/01 07:00:26;;;;;;;1.42;1.33;;;9.60;80.00;;;;;;5145097;27;20495;-46
2020/12/01 07:02:52;;;;;;;1.33;1.20;;;9.60;80.00;;;;;;5133128;27;20046;-50
2020/12/01 07:05:31;;;;;;;1.13;0.95;;;9.60;80.00;;;;;;5132764;27;20035;-49
2020/12/01 07:07:58;;;;;;;1.88;1.20;;;9.60;80.00;;;;;;5132392;27;20042;-48
2020/12/01 07:10:45;;;;;;;1.25;1.10;;;9.60;80.00;;;;;;5144813;27;20079;-46
2020/12/01 07:13:43;;;;;;;2.05;1.40;;;9.60;80.00;;;;;;5109040;27;20050;-45
2020/12/01 07:16:20;;;;;;;1.27;1.10;;;9.60;80.00;;;;;;5131626;27;20122;-47
2020/12/01 07:18:47;;;;;;;2.55;1.10;;;9.60;80.00;;;;;;5132560;27;20050;-46
2020/12/01 07:21:24;;;;;;;2.88;1.23;;;9.70;80.00;;;;;;5132595;27;20044;-47
2020/12/01 07:24:34;;;;;;;2.13;1.27;;;9.60;80.00;;;;;;5124200;27;20533;-50
2020/12/01 07:27:21;;;;;;;1.40;1.10;;;9.60;79.90;;;;;;5132970;28;20051;-45
2020/12/01 07:30:14;;;;;;;2.17;1.10;;;9.60;79.90;;;;;;5121250;28;20058;-46
2020/12/01 07:33:06;;;;;;;1.20;1.02;;;9.70;80.00;;;;;;5107829;28;20047;-48
2020/12/01 07:35:35;;;;;;;2.45;1.10;;;9.60;79.90;;;;;;5130585;28;20054;-43
2020/12/01 07:38:19;;;;;;;1.35;1.00;;;9.70;79.90;;;;;;5133151;27;20047;-44
2020/12/01 07:40:51;;;;;;;1.95;1.17;;;9.70;79.90;;;;;;5135691;27;20478;-45
2020/12/01 07:43:19;;;;;;;2.42;1.10;;;9.60;79.80;;;;;;5125955;27;20152;-47
2020/12/01 07:45:46;;;;;;;1.98;1.25;;;9.70;79.90;;;;;;5117671;27;20047;-46
2020/12/01 07:48:22;;;;;;;3.85;1.38;;;9.70;79.90;;;;;;5136820;27;20058;-45
2020/12/01 07:51:11;;;;;;;1.40;1.08;;;9.70;79.90;;;;;;5113929;27;20047;-46
2020/12/01 07:53:42;;;;;;;1.98;1.15;;;9.70;79.90;;;;;;5136693;27;20050;-45
2020/12/01 07:56:13;;;;;;;1.73;1.23;;;9.70;79.90;;;;;;5135674;27;20043;-45
2020/12/01 07:59:04;;;;;;;1.60;1.05;;;9.70;79.90;;;;;;5148348;27;21793;-47
2020/12/01 08:01:30;;;;;;;1.27;1.10;;;9.70;79.90;;;;;;5136665;27;20043;-46
2020/12/01 08:04:07;;;;;;;1.88;1.20;;;9.70;79.90;;;;;;5136488;27;20083;-45
2020/12/01 08:06:33;;;;;;;3.90;1.30;;;9.70;79.80;;;;;;5136024;27;20068;-49
2020/12/01 08:08:59;;;;;;;4.05;1.80;;;9.70;79.80;;;;;;5136663;27;20126;-45
2020/12/01 08:11:25;;;;;;;2.92;1.13;;;9.70;79.80;;;;;;5135972;27;20145;-46
2020/12/01 08:13:53;;;;;;;2.70;0.95;;;9.70;79.80;;;;;;5135702;27;20043;-48
2020/12/01 08:16:38;;;;;;;2.95;1.50;;;9.70;79.90;;;;;;5113445;27;20096;-45
2020/12/01 08:19:05;;;;;;;1.30;1.00;;;9.70;79.80;;;;;;5136228;27;20433;-46
2020/12/01 08:21:42;;;;;;;2.03;1.08;;;9.70;79.70;;;;;;5117619;27;20108;-45
2020/12/01 08:24:17;;;;;;;2.40;1.10;;;9.70;79.70;;;;;;5136144;27;20078;-46
2020/12/01 08:26:46;;;;;;;3.13;1.27;;;9.70;79.80;;;;;;5135393;27;20116;-44
2020/12/01 08:29:29;;;;;;;1.85;1.02;;;9.70;79.70;;;;;;5135513;27;20107;-44
2020/12/01 08:32:27;;;;;;;2.45;1.10;;;9.70;79.70;;;;;;5135752;27;20043;-41
2020/12/01 08:35:35;;;;;;;2.05;1.25;;;9.70;79.70;;;;;;5018998;28;20076;-45
2020/12/01 08:38:06;;;;;;;3.08;1.10;;;9.70;79.70;;;;;;5033796;28;20053;-45
2020/12/01 08:41:15;;;;;;;2.80;1.48;;;9.70;79.70;;;;;;5029109;28;20135;-46
2020/12/01 08:43:51;;;;;;;2.10;1.00;;;9.70;79.70;;;;;;5031837;28;20049;-44
2020/12/01 08:46:43;;;;;;;2.95;1.20;;;9.70;79.70;;;;;;5011538;28;20088;-46
2020/12/01 08:49:56;;;;;;;3.30;1.20;;;9.70;79.70;;;;;;5030913;28;20053;-46
2020/12/01 08:52:00;;;;;;;2.15;0.90;;;9.70;79.70;;;;;;5022007;28;20096;-46
2020/12/01 08:54:27;;;;;;;3.67;1.45;;;9.70;79.70;;;;;;5031796;28;20418;-46
2020/12/01 08:57:20;;;;;;;3.05;1.30;;;9.70;79.70;;;;;;5018471;28;20355;-44
2020/12/01 08:59:59;;;;;;;2.38;1.27;;;9.70;79.70;;;;;;5031499;28;20057;-47
2020/12/01 09:02:40;;;;;;;5.80;1.25;;;9.80;79.70;;;;;;5031806;28;20041;-49
2020/12/01 09:05:18;;;;;;;3.60;1.10;;;9.70;79.70;;;;;;5031620;28;20060;-49
2020/12/01 09:07:44;;;;;;;2.83;1.00;;;9.70;79.60;;;;;;5031802;28;20049;-50
2020/12/01 09:10:33;;;;;;;2.38;1.30;;;9.70;79.60;;;;;;5009519;28;20042;-47
2020/12/01 09:13:16;;;;;;;1.77;1.17;;;9.70;79.60;;;;;;5135324;27;20450;-48
2020/12/01 09:23:42;;;;;;;3.25;1.30;;;9.70;79.50;;;;;;5114554;28;20074;-47
2020/12/01 09:26:28;;;;;;;3.15;1.48;;;9.80;79.60;;;;;;5106173;27;20051;-48
2020/12/01 09:28:55;;;;;;;2.28;1.55;;;9.80;79.60;;;;;;5134446;27;20050;-45
2020/12/01 09:31:40;;;;;;;1.58;0.85;;;9.70;79.50;;;;;;5119186;27;20054;-45
2020/12/01 09:34:06;;;;;;;3.45;1.60;;;9.70;79.50;;;;;;5134455;27;20039;-43
2020/12/01 09:36:32;;;;;;;1.73;1.08;;;9.80;79.50;;;;;;5134363;27;20050;-44
2020/12/01 09:39:18;;;;;;;1.55;1.10;;;9.80;79.50;;;;;;5146810;27;20058;-42
2020/12/01 09:41:52;;;;;;;2.97;1.40;;;9.80;79.50;;;;;;5134806;27;20047;-40
2020/12/01 09:44:43;;;;;;;2.33;1.05;;;9.80;79.50;;;;;;5133988;27;20043;-40
2020/12/01 09:47:08;;;;;;;2.70;1.45;;;9.80;79.50;;;;;;5133060;27;20040;-43
2020/12/01 09:49:34;;;;;;;1.55;0.98;;;9.80;79.40;;;;;;5133909;27;20039;-43
2020/12/01 09:52:10;;;;;;;1.00;0.80;;;9.80;79.40;;;;;;5134099;27;20053;-42
2020/12/01 10:09:56;;;;;;;3.17;1.00;;;9.80;79.40;;;;;;4949804;29;20043;-48
2020/12/01 10:34:28;;;;;;;2.22;1.00;;;9.80;79.30;;;;;;4917263;29;20111;-43
2020/12/01 10:36:54;;;;;;;2.70;1.13;;;9.80;79.30;;;;;;4949341;28;20509;-39
2020/12/01 10:39:40;;;;;;;2.97;1.25;;;9.80;79.30;;;;;;5000461;28;20076;-41
2020/12/01 10:42:11;;;;;;;2.08;1.27;;;9.80;79.30;;;;;;5032315;28;20472;-46
2020/12/01 10:44:57;;;;;;;3.42;1.15;;;9.80;79.30;;;;;;5015167;28;20158;-42
2020/12/01 10:47:43;;;;;;;2.78;1.55;;;9.80;79.30;;;;;;5019630;28;20041;-42
2020/12/01 10:50:10;;;;;;;3.25;1.50;;;9.80;79.30;;;;;;5035660;28;20725;-45
2020/12/01 10:52:35;;;;;;;2.75;1.02;;;9.80;79.30;;;;;;5096181;27;20080;-41
2020/12/01 10:55:03;;;;;;;3.15;1.08;;;9.90;79.30;;;;;;5131368;27;20474;-42
2020/12/01 10:57:28;;;;;;;5.70;1.40;;;9.80;79.20;;;;;;5129438;27;20046;-42
2020/12/01 11:00:14;;;;;;;3.25;1.02;;;9.80;79.20;;;;;;5113404;27;20379;-43
2020/12/01 11:03:00;;;;;;;;;;;9.90;79.30;;;;;;5115162;27;20145;-42
2020/12/01 11:05:28;;;;;;;3.97;1.23;;;9.80;79.20;;;;;;5132007;27;20013;-43
2020/12/01 11:08:14;;;;;;;1.65;1.23;;;9.80;79.20;;;;;;5112923;27;20035;-43
2020/12/01 11:10:41;;;;;;;2.58;0.95;;;9.80;79.20;;;;;;5131517;27;20778;-42
2020/12/01 11:13:27;;;;;;;3.33;1.20;;;9.90;79.30;;;;;;5142228;27;20521;-42
2020/12/01 11:16:14;;;;;;;2.92;1.10;;;9.80;79.20;;;;;;5115857;27;20045;-42
2020/12/01 11:18:40;;;;;;;3.08;1.40;;;9.90;79.30;;;;;;5131709;27;20047;-45
2020/12/01 11:21:06;;;;;;;2.97;1.13;;;9.90;79.30;;;;;;5129549;27;20502;-45
2020/12/01 11:23:32;;;;;;;2.10;1.13;;;9.90;79.30;;;;;;5127016;27;20133;-47
2020/12/01 11:26:20;;;;;;;7.05;1.45;;;9.90;79.30;;;;;;5110792;28;20486;-44
2020/12/01 11:28:48;;;;;;;3.95;1.90;;;9.90;79.20;;;;;;5131542;28;20051;-44
2020/12/01 11:31:15;;;;;;;1.75;1.15;;;9.90;79.30;;;;;;5131373;28;20031;-46
2020/12/01 11:33:41;;;;;;;1.35;0.77;;;9.90;79.30;;;;;;5132023;28;20039;-46
2020/12/01 11:36:07;;;;;;;2.30;1.20;;;9.90;79.20;;;;;;5132295;28;20043;-43
2020/12/01 11:38:33;;;;;;;3.10;1.02;;;9.90;79.20;;;;;;5127393;28;20039;-45
2020/12/01 11:40:58;;;;;;;2.60;1.30;;;9.90;79.20;;;;;;5130524;28;20452;-47
2020/12/01 11:43:24;;;;;;;2.92;1.17;;;9.90;79.30;;;;;;5129861;28;20046;-50
2020/12/01 11:46:10;;;;;;;2.15;1.13;;;9.90;79.20;;;;;;5099651;28;20123;-46
2020/12/01 11:49:01;;;;;;;3.25;1.20;;;9.90;79.20;;;;;;5115823;28;20514;-44
2020/12/01 11:51:28;;;;;;;2.55;1.65;;;9.90;79.20;;;;;;5128972;28;20055;-45
2020/12/01 11:53:54;;;;;;;3.55;1.02;;;9.90;79.20;;;;;;5130245;28;20047;-43
2020/12/01 11:56:20;;;;;;;1.48;1.00;;;9.90;79.20;;;;;;5131442;28;20047;-45
2020/12/01 11:58:46;;;;;;;1.20;1.02;;;9.90;79.20;;;;;;5131445;28;20043;-45
2020/12/01 12:01:12;;;;;;;2.35;1.00;;;9.90;79.10;;;;;;5131043;28;20441;-47
2020/12/01 12:03:57;;;;;;;2.70;1.30;;;9.90;79.10;;;;;;5115881;28;20043;-46
2020/12/01 12:06:43;;;;;;;2.88;1.80;;;9.90;79.10;;;;;;5116162;28;20049;-47
2020/12/01 12:09:29;;;;;;;2.50;1.00;;;9.90;79.10;;;;;;5114464;28;20513;-47
2020/12/01 12:11:54;;;;;;;2.40;0.90;;;9.90;79.10;;;;;;5131471;28;20043;-45
2020/12/01 12:14:20;;;;;;;2.67;1.30;;;10.00;79.20;;;;;;5131280;28;20077;-46
2020/12/01 12:16:46;;;;;;;2.63;1.08;;;10.00;79.10;;;;;;5132000;28;20080;-45
2020/12/01 12:19:11;;;;;;;1.27;0.93;;;10.00;79.10;;;;;;5132156;28;20411;-46
2020/12/01 12:21:37;;;;;;;2.85;1.30;;;10.00;79.10;;;;;;5130641;28;20050;-47
2020/12/01 12:24:03;;;;;;;2.35;1.20;;;10.00;79.10;;;;;;5131393;27;20107;-46
2020/12/01 12:26:28;;;;;;;1.35;0.98;;;10.00;79.10;;;;;;5134424;27;20051;-44
2020/12/01 12:28:54;;;;;;;2.67;1.30;;;10.00;79.10;;;;;;5134074;27;20604;-48
2020/12/01 12:31:40;;;;;;;1.38;1.08;;;10.00;79.10;;;;;;5118122;27;20083;-45
2020/12/01 12:34:25;;;;;;;1.65;1.08;;;10.00;79.10;;;;;;5109429;27;20154;-47
2020/12/01 12:37:11;;;;;;;2.08;1.33;;;10.00;79.10;;;;;;5119259;27;20042;-48
2020/12/01 12:39:37;;;;;;;2.33;1.00;;;10.00;79.10;;;;;;5134488;27;20082;-47
2020/12/01 12:42:03;;;;;;;1.63;0.98;;;10.00;79.10;;;;;;5135127;27;20130;-46
2020/12/01 12:44:29;;;;;;;3.95;2.20;;;10.00;79.00;;;;;;5134436;27;20039;-47
2020/12/01 12:47:15;;;;;;;;;;;10.00;79.10;;;;;;5120600;27;20043;-50
2020/12/01 12:49:41;;;;;;;5.60;2.55;;;9.90;79.00;;;;;;5135591;27;20421;-50
2020/12/01 12:52:07;;;;;;;4.28;2.22;;;9.90;79.00;;;;;;5134354;27;20110;-50
2020/12/01 12:54:33;;;;;;;3.28;1.90;;;9.90;79.00;;;;;;5133631;27;20414;-46
2020/12/01 12:56:59;;;;;;;4.65;1.80;;;9.90;79.70;;;;;;5134897;27;20043;-47
2020/12/01 12:59:24;;;;;;;3.40;1.80;;;10.00;79.10;;;;;;5133179;27;20051;-50
2020/12/01 13:01:50;;;;;;;2.90;1.85;;;10.00;79.10;;;;;;5134423;27;20154;-49
2020/12/01 13:04:36;;;;;;;4.07;1.70;;;10.00;79.10;;;;;;5111143;27;20057;-50
2020/12/01 13:07:21;;;;;;;3.55;1.70;;;10.00;79.10;;;;;;5146816;27;20092;-48
2020/12/01 13:10:07;;;;;;;2.78;1.70;;;10.00;79.00;;;;;;5119756;27;20074;-45
2020/12/01 13:12:33;;;;;;;5.10;1.60;;;10.00;79.00;;;;;;5133929;27;20072;-47
2020/12/01 13:14:59;;;;;;;5.32;2.28;;;10.00;79.00;;;;;;5133365;27;20042;-46
2020/12/01 13:17:25;;;;;;;2.90;1.70;;;10.00;79.00;;;;;;5134023;27;20039;-47
2020/12/01 13:20:14;;;;;;;;;;;10.00;79.00;;;;;;5146745;27;20061;-45
2020/12/01 13:23:01;;;;;;;3.40;1.83;;;10.00;78.90;;;;;;5117938;27;20355;-45
2020/12/01 13:25:27;;;;;;;3.67;1.77;;;10.00;79.00;;;;;;5134584;27;20072;-45
2020/12/01 13:28:12;;;;;;;4.63;1.77;;;10.00;79.00;;;;;;5144206;27;20057;-45
2020/12/01 13:30:38;;;;;;;6.10;2.08;;;10.00;79.00;;;;;;5133804;27;20046;-45
2020/12/01 13:33:04;;;;;;;3.10;1.88;;;10.00;78.90;;;;;;5135101;27;20050;-51
2020/12/01 13:35:49;;;;;;;3.13;1.85;;;10.00;79.00;;;;;;5118097;27;20556;-47
2020/12/01 13:38:15;;;;;;;3.63;1.95;;;10.00;78.90;;;;;;5134411;27;20051;-50
2020/12/01 13:40:41;;;;;;;2.85;1.88;;;10.00;78.90;;;;;;5135019;27;20460;-49
2020/12/01 13:43:07;;;;;;;2.30;1.65;;;10.00;78.90;;;;;;5134009;27;20066;-50
2020/12/01 13:45:32;;;;;;;2.10;1.83;;;10.00;78.90;;;;;;5134110;27;20078;-50
2020/12/01 13:47:58;;;;;;;2.15;1.88;;;10.00;78.90;;;;;;5134481;27;20047;-46
2020/12/01 13:50:26;;;;;;;3.33;1.90;;;10.00;78.90;;;;;;5133901;27;20058;-45
2020/12/01 13:52:52;;;;;;;3.63;2.55;;;10.00;78.90;;;;;;5134231;27;20050;-44
2020/12/01 13:55:21;;;;;;;2.70;1.40;;;10.00;78.90;;;;;;5134209;27;20047;-44
2020/12/01 13:57:47;;;;;;;2.58;1.88;;;10.00;78.90;;;;;;5134025;27;20047;-47
2020/12/01 14:00:26;;;;;;;3.15;1.85;;;10.00;78.90;;;;;;5135098;27;20046;-45
2020/12/01 14:02:52;;;;;;;3.40;1.75;;;10.00;78.80;;;;;;5122623;27;20047;-48
2020/12/01 14:05:19;;;;;;;3.15;2.10;;;10.00;78.80;;;;;;5133610;27;20039;-48
2020/12/01 14:07:44;;;;;;;2.60;1.73;;;10.00;78.80;;;;;;5134267;27;20483;-44
2020/12/01 14:10:30;;;;;;;2.17;1.80;;;10.10;78.90;;;;;;5146367;27;20051;-46
2020/12/01 14:12:56;;;;;;;2.65;1.55;;;10.00;78.80;;;;;;5133058;27;20061;-45
2020/12/01 14:15:22;;;;;;;7.72;3.63;;;10.00;78.80;;;;;;5131966;27;20043;-42
2020/12/01 14:17:48;;;;;;;4.47;2.90;;;10.00;78.80;;;;;;5131887;27;20045;-44
2020/12/01 14:20:16;;;;;;;7.88;3.20;;;10.00;78.90;;;;;;5132656;27;20047;-44
2020/12/01 14:22:42;;;;;;;4.82;2.78;;;10.00;78.90;;;;;;5133014;27;20517;-44
2020/12/01 14:25:28;;;;;;;4.20;2.70;;;10.00;79.00;;;;;;5116706;27;20039;-43